createdAt,value
2019-01-06T00:01:37.831Z,7.27
2019-01-06T00:04:27.619Z,9.43
2019-01-06T00:07:16.361Z,9.10
2019-01-06T00:10:06.435Z,7.13
2019-01-06T00:12:53.472Z,7.47
2019-01-06T00:15:42.439Z,8.17
2019-01-06T00:18:32.000Z,7.63
2019-01-06T00:21:21.903Z,7.00
2019-01-06T00:24:12.071Z,8.33
2019-01-06T00:27:04.071Z,7.27
2019-01-06T00:29:52.959Z,12.70
2019-01-06T00:32:42.331Z,8.60
2019-01-06T00:35:32.840Z,5.80
2019-01-06T00:38:24.661Z,6.60
2019-01-06T00:41:16.162Z,9.67
2019-01-06T00:44:00.018Z,8.60
2019-01-06T00:46:49.801Z,11.83
2019-01-06T00:49:39.089Z,8.00
2019-01-06T00:52:27.706Z,8.30
2019-01-06T00:55:12.689Z,6.07
2019-01-06T00:58:01.241Z,7.40
2019-01-06T01:00:40.770Z,7.60
2019-01-06T01:03:29.829Z,12.77
2019-01-06T01:06:18.689Z,9.60
2019-01-06T01:09:07.750Z,10.27
2019-01-06T01:11:56.613Z,11.33
2019-01-06T01:14:44.280Z,7.97
2019-01-06T01:17:33.921Z,16.40
2019-01-06T01:20:22.679Z,9.63
2019-01-06T01:23:11.527Z,10.97
2019-01-06T01:26:00.484Z,10.13
2019-01-06T01:28:49.878Z,11.40
2019-01-06T01:31:38.825Z,11.83
2019-01-06T01:34:28.391Z,12.60
2019-01-06T01:37:17.669Z,11.30
2019-01-06T01:39:58.533Z,14.07
2019-01-06T01:42:48.840Z,12.63
2019-01-06T01:45:38.089Z,14.70
2019-01-06T01:48:21.762Z,14.20
2019-01-06T01:51:11.285Z,11.83
2019-01-06T01:54:00.065Z,12.27
2019-01-06T01:56:49.767Z,12.53
2019-01-06T01:59:39.409Z,9.83
2019-01-06T02:02:30.065Z,10.77
2019-01-06T02:05:21.066Z,8.77
2019-01-06T02:08:06.400Z,14.17
2019-01-06T02:10:55.882Z,10.23
2019-01-06T02:13:44.959Z,11.97
2019-01-06T02:16:35.071Z,12.83
2019-01-06T02:19:21.833Z,7.87
2019-01-06T02:22:12.073Z,11.90
2019-01-06T02:25:03.062Z,10.30
2019-01-06T02:27:54.044Z,12.07
2019-01-06T02:30:39.443Z,10.83
2019-01-06T02:33:29.926Z,15.07
2019-01-06T02:36:20.508Z,10.97
2019-01-06T02:39:10.403Z,10.03
2019-01-06T02:41:55.666Z,11.33
2019-01-06T02:44:45.459Z,11.60
2019-01-06T02:47:35.079Z,9.03
2019-01-06T02:50:24.082Z,11.03
2019-01-06T02:53:08.879Z,10.07
2019-01-06T02:55:58.209Z,9.33
2019-01-06T02:58:43.923Z,14.70
2019-01-06T03:01:31.859Z,12.33
2019-01-06T03:04:18.443Z,10.60
2019-01-06T03:07:03.429Z,10.90
2019-01-06T03:09:52.470Z,9.13
2019-01-06T03:12:41.422Z,10.57
2019-01-06T03:15:30.409Z,8.50
2019-01-06T03:18:19.456Z,7.50
2019-01-06T03:21:08.713Z,10.03
2019-01-06T03:23:57.807Z,11.10
2019-01-06T03:26:46.868Z,9.57
2019-01-06T03:29:36.930Z,10.23
2019-01-06T03:32:26.399Z,10.07
2019-01-06T03:35:10.453Z,9.67
2019-01-06T03:37:59.834Z,9.53
2019-01-06T03:40:50.011Z,8.00
2019-01-06T03:43:42.572Z,10.53
2019-01-06T03:46:33.890Z,8.17
2019-01-06T03:49:23.451Z,11.40
2019-01-06T03:52:14.089Z,9.37
2019-01-06T03:54:59.434Z,7.47
2019-01-06T03:57:48.692Z,8.83
2019-01-06T04:00:37.756Z,7.90
2019-01-06T04:03:26.709Z,8.53
2019-01-06T04:06:14.337Z,8.77
2019-01-06T04:09:03.193Z,10.80
2019-01-06T04:11:51.854Z,9.67
2019-01-06T04:14:40.723Z,7.93
2019-01-06T04:17:29.884Z,8.83
2019-01-06T04:20:18.627Z,9.47
2019-01-06T04:23:07.485Z,9.53
2019-01-06T04:25:56.135Z,8.20
2019-01-06T04:28:46.033Z,7.30
2019-01-06T04:31:34.686Z,8.50
2019-01-06T04:34:23.335Z,7.10
2019-01-06T04:37:12.594Z,8.13
2019-01-06T04:40:03.323Z,8.90
2019-01-06T04:42:52.984Z,8.63
2019-01-06T04:45:43.084Z,8.97
2019-01-06T04:48:33.564Z,7.13
2019-01-06T04:51:22.840Z,6.53
2019-01-06T04:54:12.631Z,7.50
2019-01-06T04:57:02.811Z,5.80
2019-01-06T04:59:52.900Z,7.40
2019-01-06T05:02:39.814Z,5.50
2019-01-06T05:05:28.984Z,4.53
2019-01-06T05:08:17.717Z,5.10
2019-01-06T05:11:06.802Z,6.33
2019-01-06T05:13:55.427Z,4.97
2019-01-06T05:16:44.386Z,5.53
2019-01-06T05:19:33.243Z,5.80
2019-01-06T05:22:22.228Z,5.27
2019-01-06T05:25:10.978Z,6.57
2019-01-06T05:28:00.539Z,5.93
2019-01-06T05:30:49.304Z,5.77
2019-01-06T05:33:40.832Z,6.63
2019-01-06T05:36:29.467Z,7.10
2019-01-06T05:39:18.545Z,5.43
2019-01-06T05:42:07.602Z,5.10
2019-01-06T05:44:46.740Z,4.43
2019-01-06T05:47:35.693Z,9.87
2019-01-06T05:50:24.762Z,5.93
2019-01-06T05:53:13.194Z,5.27
2019-01-06T05:56:02.153Z,6.10
2019-01-06T05:58:51.726Z,7.63
2019-01-06T06:01:40.510Z,8.00
2019-01-06T06:04:29.659Z,6.83
2019-01-06T06:07:19.066Z,6.93
2019-01-06T06:10:07.688Z,6.47
2019-01-06T06:12:57.562Z,6.17
2019-01-06T06:15:46.952Z,7.23
2019-01-06T06:18:36.942Z,7.17
2019-01-06T06:21:25.891Z,5.50
2019-01-06T06:24:14.626Z,5.20
2019-01-06T06:27:03.699Z,6.00
2019-01-06T06:29:51.652Z,7.60
2019-01-06T06:32:41.840Z,5.77
2019-01-06T06:35:32.083Z,6.10
2019-01-06T06:38:22.303Z,6.87
2019-01-06T06:41:06.863Z,6.67
2019-01-06T06:43:57.671Z,6.43
2019-01-06T06:46:48.269Z,5.70
2019-01-06T06:49:38.067Z,6.13
2019-01-06T06:52:25.883Z,6.33
2019-01-06T06:55:17.079Z,6.53
2019-01-06T06:58:25.304Z,8.77
2019-01-06T07:01:20.715Z,5.90
2019-01-06T07:04:09.665Z,6.53
2019-01-06T07:06:58.728Z,6.03
2019-01-06T07:09:47.502Z,8.77
2019-01-06T07:12:36.452Z,6.03
2019-01-06T07:15:25.943Z,6.73
2019-01-06T07:18:14.671Z,7.70
2019-01-06T07:21:05.692Z,7.73
2019-01-06T07:23:54.853Z,13.47
2019-01-06T07:26:44.853Z,6.60
2019-01-06T07:29:34.927Z,6.87
2019-01-06T07:32:22.246Z,6.30
2019-01-06T07:35:11.825Z,5.77
2019-01-06T07:37:57.506Z,8.17
2019-01-06T07:40:46.889Z,6.77
2019-01-06T07:43:36.972Z,9.03
2019-01-06T07:46:26.438Z,7.00
2019-01-06T07:49:15.704Z,8.43
2019-01-06T07:51:55.657Z,8.73
2019-01-06T07:54:44.831Z,11.10
2019-01-06T07:57:34.803Z,9.23
2019-01-06T08:00:17.926Z,8.57
2019-01-06T08:03:07.812Z,8.37
2019-01-06T08:05:56.668Z,9.60
2019-01-06T08:08:46.256Z,7.90
2019-01-06T08:11:35.822Z,6.83
2019-01-06T08:14:24.979Z,8.27
2019-01-06T08:17:13.848Z,9.20
2019-01-06T08:20:02.388Z,7.70
2019-01-06T08:22:51.265Z,10.83
2019-01-06T08:25:40.092Z,12.37
2019-01-06T08:28:28.873Z,16.07
2019-01-06T08:31:17.833Z,8.73
2019-01-06T08:34:06.497Z,19.93
2019-01-06T08:36:55.648Z,11.63
2019-01-06T08:39:42.445Z,11.60
2019-01-06T08:42:31.621Z,9.80
2019-01-06T08:45:21.823Z,16.03
2019-01-06T08:48:05.435Z,11.47
2019-01-06T08:50:54.818Z,11.77
2019-01-06T08:53:45.025Z,12.50
2019-01-06T08:56:34.475Z,10.37
2019-01-06T08:59:23.958Z,12.83
2019-01-06T09:02:13.214Z,18.23
2019-01-06T09:04:54.810Z,13.67
2019-01-06T09:07:43.878Z,14.17
2019-01-06T09:10:31.913Z,11.40
2019-01-06T09:13:14.824Z,12.67
2019-01-06T09:16:03.673Z,14.67
2019-01-06T09:18:44.748Z,15.43
2019-01-06T09:21:33.526Z,17.97
2019-01-06T09:24:22.589Z,14.70
2019-01-06T09:27:11.533Z,15.13
2019-01-06T09:30:00.817Z,20.47
2019-01-06T09:32:49.463Z,17.80
2019-01-06T09:35:38.713Z,17.17
2019-01-06T09:38:27.901Z,16.00
2019-01-06T09:41:10.700Z,21.43
2019-01-06T09:43:59.866Z,17.47
2019-01-06T09:46:39.408Z,14.40
2019-01-06T09:49:29.490Z,16.50
2019-01-06T09:52:18.779Z,17.40
2019-01-06T09:55:10.079Z,19.07
2019-01-06T09:58:01.071Z,16.77
2019-01-06T10:00:53.064Z,15.83
2019-01-06T10:03:44.119Z,13.07
2019-01-06T10:06:35.764Z,12.23
2019-01-06T10:09:28.304Z,17.40
2019-01-06T10:12:18.999Z,17.27
2019-01-06T10:15:09.084Z,19.87
2019-01-06T10:17:58.343Z,18.57
2019-01-06T10:20:48.044Z,20.60
2019-01-06T10:23:38.337Z,25.63
2019-01-06T10:26:28.321Z,12.87
2019-01-06T10:29:11.742Z,10.23
2019-01-06T10:31:53.006Z,13.33
2019-01-06T10:34:42.802Z,12.43
2019-01-06T10:37:31.751Z,12.23
2019-01-06T10:40:20.403Z,15.07
2019-01-06T10:43:09.792Z,8.83
2019-01-06T10:45:59.077Z,11.30
2019-01-06T10:48:47.587Z,10.27
2019-01-06T10:51:36.770Z,14.53
2019-01-06T10:54:26.540Z,14.63
2019-01-06T10:57:15.921Z,14.67
2019-01-06T11:00:05.996Z,16.10
2019-01-06T11:02:55.081Z,14.57
2019-01-06T11:05:45.042Z,11.57
2019-01-06T11:08:31.443Z,12.93
2019-01-06T11:11:21.015Z,13.73
2019-01-06T11:14:10.794Z,21.50
2019-01-06T11:17:00.889Z,12.20
2019-01-06T11:19:50.681Z,11.97
2019-01-06T11:22:39.822Z,11.77
2019-01-06T11:25:29.064Z,33.03
2019-01-06T11:28:18.470Z,15.63
2019-01-06T11:31:07.732Z,44.13
2019-01-06T11:33:57.957Z,18.23
2019-01-06T11:36:47.921Z,14.17
2019-01-06T11:39:37.893Z,18.60
2019-01-06T11:42:28.414Z,18.70
2019-01-06T11:45:18.477Z,17.87
2019-01-06T11:48:07.880Z,18.57
2019-01-06T11:50:57.842Z,12.20
2019-01-06T11:53:47.402Z,17.83
2019-01-06T11:56:36.473Z,23.03
2019-01-06T11:59:25.877Z,20.27
2019-01-06T12:02:15.436Z,19.40
2019-01-06T12:05:06.247Z,14.03
2019-01-06T12:07:55.401Z,13.47
2019-01-06T12:10:34.415Z,19.10
2019-01-06T12:13:23.470Z,19.20
2019-01-06T12:16:12.641Z,15.63
2019-01-06T12:19:03.951Z,17.37
2019-01-06T12:21:52.822Z,13.97
2019-01-06T12:24:41.775Z,12.53
2019-01-06T12:27:22.777Z,14.73
2019-01-06T12:30:11.624Z,13.77
2019-01-06T12:33:01.591Z,24.50
2019-01-06T12:35:50.981Z,20.93
2019-01-06T12:38:40.849Z,28.63
2019-01-06T12:41:31.228Z,23.67
2019-01-06T12:44:21.828Z,21.30
2019-01-06T12:47:12.741Z,22.93
2019-01-06T12:50:01.404Z,31.60
2019-01-06T12:52:50.781Z,31.63
2019-01-06T12:55:34.002Z,29.17
2019-01-06T12:58:24.497Z,19.47
2019-01-06T13:01:14.465Z,20.23
2019-01-06T13:04:04.260Z,21.77
2019-01-06T13:06:54.445Z,22.53
2019-01-06T13:09:44.968Z,29.07
2019-01-06T13:12:34.609Z,21.60
2019-01-06T13:15:25.025Z,24.00
2019-01-06T13:18:14.713Z,43.90
2019-01-06T13:21:04.986Z,35.53
2019-01-06T13:23:54.879Z,74.30
2019-01-06T13:26:45.660Z,45.43
2019-01-06T13:29:28.490Z,139.23
2019-01-06T13:32:17.857Z,84.90
2019-01-06T13:35:07.930Z,26.97
2019-01-06T13:37:57.723Z,27.57
2019-01-06T13:40:47.301Z,26.57
2019-01-06T13:43:33.802Z,43.40
2019-01-06T13:46:23.489Z,46.63
2019-01-06T13:49:13.061Z,23.30
2019-01-06T13:51:59.762Z,27.13
2019-01-06T13:54:48.710Z,22.70
2019-01-06T13:57:37.793Z,18.37
2019-01-06T14:00:27.447Z,30.03
2019-01-06T14:03:16.724Z,24.70
2019-01-06T14:05:59.843Z,23.13
2019-01-06T14:08:48.824Z,27.83
2019-01-06T14:11:37.783Z,30.13
2019-01-06T14:14:27.639Z,24.27
2019-01-06T14:17:16.832Z,21.93
2019-01-06T14:20:05.664Z,24.40
2019-01-06T14:22:55.447Z,103.33
2019-01-06T14:25:40.066Z,46.57
2019-01-06T14:28:29.182Z,45.20
2019-01-06T14:31:18.072Z,47.33
2019-01-06T14:34:07.090Z,123.27
2019-01-06T14:36:55.961Z,29.50
2019-01-06T14:39:38.044Z,29.00
2019-01-06T14:42:26.857Z,22.03
2019-01-06T14:45:15.784Z,19.00
2019-01-06T14:48:00.439Z,18.47
2019-01-06T14:50:52.464Z,18.47
2019-01-06T14:53:41.420Z,18.93
2019-01-06T14:56:30.710Z,20.10
2019-01-06T14:59:13.402Z,14.63
2019-01-06T15:02:01.974Z,27.37
2019-01-06T15:04:51.419Z,32.53
2019-01-06T15:07:40.400Z,23.47
2019-01-06T15:10:29.242Z,14.17
2019-01-06T15:13:18.082Z,22.73
2019-01-06T15:16:07.273Z,24.30
2019-01-06T15:18:56.433Z,10.67
2019-01-06T15:21:45.391Z,14.07
2019-01-06T15:24:34.463Z,8.17
2019-01-06T15:27:21.795Z,8.83
2019-01-06T15:30:10.850Z,13.77
2019-01-06T15:32:59.798Z,10.60
2019-01-06T15:35:48.970Z,19.40
2019-01-06T15:38:34.965Z,11.27
2019-01-06T15:41:24.063Z,8.60
2019-01-06T15:44:13.213Z,10.50
2019-01-06T15:47:02.555Z,12.60
2019-01-06T15:49:52.244Z,13.83
2019-01-06T15:52:42.441Z,12.03
2019-01-06T15:55:31.811Z,11.03
2019-01-06T15:58:21.481Z,10.27
2019-01-06T16:01:10.235Z,12.30
2019-01-06T16:04:00.715Z,11.30
2019-01-06T16:06:51.419Z,10.10
2019-01-06T16:09:46.420Z,12.63
2019-01-06T16:12:28.484Z,14.33
2019-01-06T16:15:19.324Z,16.43
2019-01-06T16:18:24.666Z,15.57
2019-01-06T16:21:15.283Z,20.37
2019-01-06T16:24:04.636Z,11.70
2019-01-06T16:26:58.922Z,12.80
2019-01-06T16:29:56.188Z,11.97
2019-01-06T16:32:59.891Z,12.10
2019-01-06T16:35:57.970Z,10.07
2019-01-06T16:38:47.747Z,18.03
2019-01-06T16:41:40.067Z,10.17
2019-01-06T16:44:33.365Z,13.10
2019-01-06T16:47:24.637Z,13.13
2019-01-06T16:50:18.219Z,10.93
2019-01-06T16:53:09.740Z,10.57
2019-01-06T16:55:59.210Z,12.43
2019-01-06T16:58:48.784Z,12.80
2019-01-06T17:01:41.746Z,10.43
2019-01-06T17:04:31.625Z,10.87
2019-01-06T17:07:25.304Z,17.07
2019-01-06T17:10:23.108Z,10.93
2019-01-06T17:13:11.847Z,10.60
2019-01-06T17:15:58.828Z,10.37
2019-01-06T17:18:48.320Z,11.90
2019-01-06T17:21:37.773Z,16.50
2019-01-06T17:24:27.881Z,15.80
2019-01-06T17:27:17.742Z,13.60
2019-01-06T17:30:08.753Z,10.20
2019-01-06T17:32:58.018Z,15.00
2019-01-06T17:35:48.517Z,13.73
2019-01-06T17:38:45.267Z,13.80
2019-01-06T17:41:36.266Z,15.23
2019-01-06T17:44:28.505Z,13.67
2019-01-06T17:47:18.066Z,12.33
2019-01-06T17:50:08.985Z,22.60
2019-01-06T17:53:00.623Z,15.53
2019-01-06T17:55:49.774Z,41.67
2019-01-06T17:58:42.317Z,35.77
2019-01-06T18:01:41.517Z,18.90
2019-01-06T18:04:31.501Z,22.03
2019-01-06T18:07:21.383Z,22.37
2019-01-06T18:10:06.759Z,26.93
2019-01-06T18:12:55.417Z,22.87
2019-01-06T18:15:45.404Z,22.20
2019-01-06T18:18:34.459Z,97.13
2019-01-06T18:21:24.040Z,46.07
2019-01-06T18:24:09.619Z,57.70
2019-01-06T18:26:58.578Z,38.03
2019-01-06T18:29:50.041Z,22.97
2019-01-06T18:32:47.660Z,26.37
2019-01-06T18:35:37.132Z,34.83
2019-01-06T18:38:26.297Z,20.40
2019-01-06T18:41:15.773Z,72.13
2019-01-06T18:44:04.424Z,105.07
2019-01-06T18:46:56.983Z,52.83
2019-01-06T18:49:47.776Z,74.40
2019-01-06T18:52:36.627Z,125.30
2019-01-06T18:55:26.007Z,38.37
2019-01-06T18:58:16.399Z,165.37
2019-01-06T19:01:05.478Z,77.87
2019-01-06T19:03:59.743Z,60.20
2019-01-06T19:06:51.475Z,20.80
2019-01-06T19:09:50.344Z,45.30
2019-01-06T19:12:44.122Z,21.17
2019-01-06T19:15:37.514Z,29.10
2019-01-06T19:18:29.065Z,22.67
2019-01-06T19:21:28.937Z,18.37
2019-01-06T19:24:19.951Z,71.17
2019-01-06T19:27:19.558Z,18.80
2019-01-06T19:30:09.645Z,20.57
2019-01-06T19:33:00.966Z,23.50
2019-01-06T19:35:51.102Z,26.77
2019-01-06T19:38:41.444Z,28.27
2019-01-06T19:41:35.310Z,18.40
2019-01-06T19:44:25.512Z,40.53
2019-01-06T19:47:16.926Z,61.83
2019-01-06T19:50:07.319Z,55.30
2019-01-06T19:53:00.167Z,29.00
2019-01-06T19:55:54.351Z,31.03
2019-01-06T19:58:48.632Z,67.47
2019-01-06T20:01:43.843Z,95.33
2019-01-06T20:04:37.410Z,123.87
2019-01-06T20:07:28.525Z,41.23
2019-01-06T20:10:19.067Z,37.30
2019-01-06T20:13:15.139Z,39.93
2019-01-06T20:16:05.861Z,88.73
2019-01-06T20:18:56.859Z,39.40
2019-01-06T20:21:47.054Z,57.10
2019-01-06T20:24:37.745Z,37.13
2019-01-06T20:27:28.253Z,61.33
2019-01-06T20:30:20.073Z,56.83
2019-01-06T20:33:10.875Z,70.00
2019-01-06T20:36:01.379Z,88.17
2019-01-06T20:38:52.900Z,68.90
2019-01-06T20:41:33.867Z,52.17
2019-01-06T20:44:22.424Z,55.00
2019-01-06T20:47:19.781Z,42.90
2019-01-06T20:50:09.455Z,42.83
2019-01-06T20:52:58.823Z,38.93
2019-01-06T20:55:49.427Z,29.73
2019-01-06T20:58:39.812Z,62.63
2019-01-06T21:01:32.458Z,52.20
2019-01-06T21:04:22.654Z,28.50
2019-01-06T21:07:14.889Z,33.20
2019-01-06T21:10:04.768Z,22.70
2019-01-06T21:12:58.748Z,32.87
2019-01-06T21:15:48.425Z,23.73
2019-01-06T21:18:40.774Z,39.73
2019-01-06T21:21:29.841Z,25.20
2019-01-06T21:24:19.091Z,36.20
2019-01-06T21:27:12.249Z,22.03
2019-01-06T21:30:03.774Z,25.27
2019-01-06T21:32:54.982Z,26.53
2019-01-06T21:35:47.425Z,92.63
2019-01-06T21:38:36.903Z,149.23
2019-01-06T21:41:26.577Z,104.40
2019-01-06T21:44:13.795Z,81.83
2019-01-06T21:47:02.451Z,95.17
2019-01-06T21:49:51.315Z,47.23
2019-01-06T21:52:40.467Z,30.90
2019-01-06T21:55:29.333Z,28.87
2019-01-06T21:58:18.290Z,25.73
2019-01-06T22:01:06.735Z,20.10
2019-01-06T22:03:49.141Z,16.40
2019-01-06T22:06:38.616Z,16.03
2019-01-06T22:09:27.885Z,40.63
2019-01-06T22:12:17.878Z,52.80
2019-01-06T22:15:06.733Z,51.33
2019-01-06T22:17:55.789Z,55.50
2019-01-06T22:20:39.628Z,37.30
2019-01-06T22:23:25.082Z,27.60
2019-01-06T22:26:14.481Z,27.03
2019-01-06T22:29:03.751Z,27.13
2019-01-06T22:31:52.915Z,25.83
2019-01-06T22:34:44.231Z,22.27
2019-01-06T22:37:33.905Z,21.90
2019-01-06T22:40:22.866Z,19.60
2019-01-06T22:43:12.952Z,23.13
2019-01-06T22:46:02.842Z,20.73
2019-01-06T22:48:52.823Z,33.77
2019-01-06T22:51:42.400Z,36.80
2019-01-06T22:54:31.959Z,40.77
2019-01-06T22:57:21.852Z,33.70
2019-01-06T23:00:11.871Z,47.37
2019-01-06T23:02:56.062Z,60.43
2019-01-06T23:05:45.725Z,48.57
2019-01-06T23:08:35.462Z,40.37
2019-01-06T23:11:20.831Z,32.93
2019-01-06T23:14:10.800Z,27.83
2019-01-06T23:16:59.768Z,31.33
2019-01-06T23:19:47.819Z,29.40
2019-01-06T23:22:36.983Z,25.70
2019-01-06T23:25:27.076Z,30.60
2019-01-06T23:28:17.761Z,26.10
2019-01-06T23:31:04.891Z,20.00
2019-01-06T23:33:54.551Z,22.30
2019-01-06T23:36:44.042Z,21.67
2019-01-06T23:39:33.398Z,22.80
2019-01-06T23:42:22.273Z,19.40
2019-01-06T23:45:12.071Z,19.10
2019-01-06T23:48:02.052Z,18.70
2019-01-06T23:50:50.503Z,19.23
2019-01-06T23:53:40.888Z,22.70
2019-01-06T23:56:32.095Z,21.63
2019-01-06T23:59:16.953Z,20.47
